createdAt,value
2022-09-18T00:01:32.573Z,3.27
2022-09-18T00:04:05.176Z,4.55
2022-09-18T00:06:37.577Z,2.92
2022-09-18T00:09:09.775Z,3.70
2022-09-18T00:11:41.547Z,3.25
2022-09-18T00:14:13.611Z,3.60
2022-09-18T00:16:41.843Z,4.90
2022-09-18T00:19:10.594Z,4.75
2022-09-18T00:21:42.588Z,3.35
2022-09-18T00:24:10.749Z,5.47
2022-09-18T00:26:38.713Z,5.33
2022-09-18T00:29:07.117Z,6.25
2022-09-18T00:31:36.810Z,4.95
2022-09-18T00:34:09.920Z,5.17
2022-09-18T00:36:39.894Z,6.03
2022-09-18T00:39:08.905Z,4.17
2022-09-18T00:41:40.229Z,3.22
2022-09-18T00:44:41.384Z,2.90
2022-09-18T00:47:15.107Z,3.17
2022-09-18T00:49:50.451Z,2.20
2022-09-18T00:52:23.024Z,3.25
2022-09-18T00:54:56.015Z,2.55
2022-09-18T00:57:28.715Z,2.35
2022-09-18T00:59:57.832Z,2.40
2022-09-18T01:02:25.450Z,3.67
2022-09-18T01:04:53.491Z,4.30
2022-09-18T01:07:35.145Z,2.55
2022-09-18T01:10:17.104Z,4.67
2022-09-18T01:13:01.877Z,2.37
2022-09-18T01:15:41.234Z,2.58
2022-09-18T01:18:17.395Z,3.27
2022-09-18T01:21:16.428Z,2.15
2022-09-18T01:23:55.346Z,3.42
2022-09-18T01:26:58.428Z,2.33
2022-09-18T01:29:53.085Z,2.90
2022-09-18T01:32:41.540Z,2.22
2022-09-18T01:35:40.521Z,1.30
2022-09-18T01:37:58.903Z,1.10
2022-09-18T01:40:40.461Z,1.82
2022-09-18T01:43:12.837Z,1.27
2022-09-18T01:45:46.579Z,1.40
2022-09-18T01:48:29.058Z,1.75
2022-09-18T01:51:10.205Z,0.90
2022-09-18T01:53:49.558Z,1.20
2022-09-18T01:56:36.096Z,0.62
2022-09-18T01:59:11.435Z,1.53
2022-09-18T02:01:51.304Z,0.47
2022-09-18T02:04:28.000Z,0.28
2022-09-18T02:07:36.728Z,1.42
2022-09-18T02:10:08.502Z,0.50
2022-09-18T02:12:41.836Z,0.95
2022-09-18T02:15:13.476Z,1.95
2022-09-18T02:17:59.946Z,0.30
2022-09-18T02:20:31.473Z,2.92
2022-09-18T02:23:03.849Z,1.12
2022-09-18T02:25:54.351Z,0.15
2022-09-18T02:28:24.243Z,1.47
2022-09-18T02:30:51.867Z,0.10
2022-09-18T02:33:31.993Z,1.45
2022-09-18T02:36:32.516Z,1.00
2022-09-18T02:39:33.253Z,0.10
2022-09-18T02:42:28.950Z,0.17
2022-09-18T02:45:29.645Z,0.20
2022-09-18T02:48:08.920Z,0.30
2022-09-18T02:51:00.539Z,0.75
2022-09-18T02:53:51.646Z,0.40
2022-09-18T02:56:40.269Z,0.20
2022-09-18T02:59:35.101Z,0.20
2022-09-18T03:02:04.169Z,0.20
2022-09-18T03:04:33.853Z,0.30
2022-09-18T03:07:06.055Z,0.10
2022-09-18T03:09:35.521Z,0.10
2022-09-18T03:12:04.356Z,0.23
2022-09-18T03:14:33.951Z,0.42
2022-09-18T03:17:03.398Z,0.25
2022-09-18T03:19:32.258Z,1.65
2022-09-18T03:22:00.889Z,0.57
2022-09-18T03:24:30.760Z,0.75
2022-09-18T03:26:58.702Z,0.20
2022-09-18T03:29:27.809Z,0.45
2022-09-18T03:31:56.612Z,0.20
2022-09-18T03:34:24.426Z,0.30
2022-09-18T03:36:52.011Z,0.20
2022-09-18T03:39:20.029Z,0.30
2022-09-18T03:41:48.538Z,0.40
2022-09-18T03:44:16.258Z,0.33
2022-09-18T03:46:45.156Z,0.88
2022-09-18T03:49:12.807Z,0.40
2022-09-18T03:51:41.768Z,0.60
2022-09-18T03:54:09.667Z,0.42
2022-09-18T03:56:51.474Z,0.57
2022-09-18T03:59:29.737Z,0.53
2022-09-18T04:01:57.546Z,1.75
2022-09-18T04:04:28.953Z,0.60
2022-09-18T04:07:14.943Z,0.53
2022-09-18T04:10:01.303Z,1.50
2022-09-18T04:12:28.978Z,0.50
2022-09-18T04:14:58.441Z,2.77
2022-09-18T04:17:26.522Z,0.53
2022-09-18T04:19:54.376Z,0.95
2022-09-18T04:22:23.037Z,0.30
2022-09-18T04:24:50.593Z,0.40
2022-09-18T04:27:18.334Z,3.10
2022-09-18T04:29:46.038Z,1.37
2022-09-18T04:32:14.047Z,0.60
2022-09-18T04:34:42.819Z,0.60
2022-09-18T04:37:10.935Z,0.40
2022-09-18T04:39:39.926Z,0.47
2022-09-18T04:42:07.877Z,0.80
2022-09-18T04:44:35.401Z,1.32
2022-09-18T04:47:03.093Z,0.70
2022-09-18T04:49:31.120Z,0.70
2022-09-18T04:52:00.783Z,1.30
2022-09-18T04:54:28.458Z,0.60
2022-09-18T04:56:56.390Z,1.15
2022-09-18T04:59:23.802Z,0.93
2022-09-18T05:01:53.186Z,2.55
2022-09-18T05:04:20.981Z,1.77
2022-09-18T05:06:53.514Z,2.15
2022-09-18T05:09:21.070Z,2.27
2022-09-18T05:11:48.790Z,1.27
2022-09-18T05:14:16.760Z,0.80
2022-09-18T05:16:46.376Z,0.75
2022-09-18T05:19:21.401Z,0.53
2022-09-18T05:21:50.378Z,1.27
2022-09-18T05:24:18.345Z,1.98
2022-09-18T05:26:45.931Z,0.62
2022-09-18T05:29:13.555Z,0.80
2022-09-18T05:31:41.532Z,2.17
2022-09-18T05:34:09.512Z,0.60
2022-09-18T05:36:36.904Z,0.62
2022-09-18T05:39:05.457Z,1.05
2022-09-18T05:41:33.212Z,1.57
2022-09-18T05:44:02.909Z,1.20
2022-09-18T05:46:30.583Z,2.10
2022-09-18T05:49:00.173Z,0.75
2022-09-18T05:51:27.871Z,0.93
2022-09-18T05:53:55.543Z,0.90
2022-09-18T05:56:24.711Z,0.55
2022-09-18T05:58:54.440Z,0.60
2022-09-18T06:01:22.022Z,0.60
2022-09-18T06:04:09.404Z,1.87
2022-09-18T06:06:44.823Z,0.78
2022-09-18T06:09:13.299Z,0.93
2022-09-18T06:11:41.110Z,0.62
2022-09-18T06:14:08.567Z,0.60
2022-09-18T06:16:41.331Z,1.30
2022-09-18T06:19:07.278Z,0.50
2022-09-18T06:21:34.778Z,0.40
2022-09-18T06:24:04.135Z,3.20
2022-09-18T06:26:33.570Z,2.65
2022-09-18T06:29:01.151Z,0.60
2022-09-18T06:31:30.579Z,0.90
2022-09-18T06:34:02.867Z,0.70
2022-09-18T06:36:30.452Z,3.22
2022-09-18T06:39:02.977Z,0.30
2022-09-18T06:41:30.479Z,1.55
2022-09-18T06:43:58.386Z,0.40
2022-09-18T06:46:27.681Z,1.20
2022-09-18T06:48:55.376Z,0.55
2022-09-18T06:51:22.807Z,0.90
2022-09-18T06:54:01.091Z,0.90
2022-09-18T06:56:28.735Z,0.80
2022-09-18T06:58:55.998Z,0.65
2022-09-18T07:01:24.025Z,1.95
2022-09-18T07:03:53.715Z,0.60
2022-09-18T07:06:23.513Z,0.45
2022-09-18T07:08:52.721Z,0.57
2022-09-18T07:11:35.793Z,0.30
2022-09-18T07:14:07.672Z,0.30
2022-09-18T07:16:35.921Z,0.70
2022-09-18T07:19:04.128Z,0.53
2022-09-18T07:21:31.888Z,0.80
2022-09-18T07:24:00.755Z,0.95
2022-09-18T07:26:29.891Z,0.40
2022-09-18T07:28:57.388Z,0.68
2022-09-18T07:31:29.535Z,1.12
2022-09-18T07:33:57.179Z,2.65
2022-09-18T07:36:27.477Z,2.37
2022-09-18T07:38:55.302Z,4.30
2022-09-18T07:41:25.822Z,2.25
2022-09-18T07:43:53.444Z,1.65
2022-09-18T07:46:21.152Z,1.42
2022-09-18T07:48:49.982Z,0.85
2022-09-18T07:51:26.125Z,0.88
2022-09-18T07:53:53.457Z,0.53
2022-09-18T07:56:23.158Z,0.50
2022-09-18T07:58:51.077Z,0.53
2022-09-18T08:01:20.521Z,1.35
2022-09-18T08:03:50.353Z,0.70
2022-09-18T08:06:22.211Z,0.30
2022-09-18T08:08:57.760Z,0.60
2022-09-18T08:11:26.970Z,0.50
2022-09-18T08:13:59.733Z,1.15
2022-09-18T08:16:42.723Z,0.50
2022-09-18T08:19:26.953Z,0.98
2022-09-18T08:21:56.223Z,1.12
2022-09-18T08:24:24.099Z,1.17
2022-09-18T08:26:53.286Z,1.22
2022-09-18T08:29:20.905Z,0.90
2022-09-18T08:31:50.278Z,0.70
2022-09-18T08:34:17.852Z,0.45
2022-09-18T08:36:45.578Z,1.02
2022-09-18T08:39:26.962Z,0.57
2022-09-18T08:44:50.134Z,0.80
2022-09-18T08:47:31.167Z,2.42
2022-09-18T08:50:08.814Z,1.45
2022-09-18T08:52:41.125Z,0.80
2022-09-18T08:55:42.782Z,1.25
2022-09-18T08:58:20.238Z,1.60
2022-09-18T09:00:57.060Z,1.27
2022-09-18T09:03:43.909Z,1.70
2022-09-18T09:06:37.948Z,1.05
2022-09-18T09:09:42.992Z,0.62
2022-09-18T09:12:39.190Z,1.35
2022-09-18T09:15:39.355Z,1.47
2022-09-18T09:18:18.542Z,0.95
2022-09-18T09:20:53.953Z,1.12
2022-09-18T09:23:48.044Z,2.95
2022-09-18T09:26:22.986Z,1.40
2022-09-18T09:29:15.260Z,0.93
2022-09-18T09:32:12.360Z,2.27
2022-09-18T09:37:48.076Z,1.15
2022-09-18T09:40:34.769Z,0.88
2022-09-18T09:43:22.789Z,1.10
2022-09-18T09:45:54.601Z,0.72
2022-09-18T09:48:48.464Z,1.22
2022-09-18T09:53:51.840Z,1.62
2022-09-18T09:56:46.587Z,1.05
2022-09-18T09:59:25.278Z,11.30
2022-09-18T10:02:20.056Z,1.80
2022-09-18T10:05:14.219Z,1.25
2022-09-18T10:07:57.341Z,1.32
2022-09-18T10:10:39.837Z,1.45
2022-09-18T10:13:27.471Z,0.90
2022-09-18T10:16:16.227Z,3.47
2022-09-18T10:18:47.578Z,3.72
2022-09-18T10:21:22.041Z,0.80
2022-09-18T10:24:07.994Z,1.72
2022-09-18T10:27:12.001Z,2.72
2022-09-18T10:29:41.300Z,3.92
2022-09-18T10:32:12.344Z,5.50
2022-09-18T10:34:47.108Z,8.15
2022-09-18T10:37:33.517Z,26.57
2022-09-18T10:40:06.698Z,16.67
2022-09-18T10:42:37.115Z,7.03
2022-09-18T10:45:28.995Z,5.00
2022-09-18T10:48:18.297Z,2.37
2022-09-18T10:50:56.238Z,3.40
2022-09-18T10:53:36.897Z,1.07
2022-09-18T10:56:19.596Z,2.40
2022-09-18T10:58:47.994Z,1.47
2022-09-18T11:01:15.777Z,2.67
2022-09-18T11:04:04.620Z,0.85
2022-09-18T11:06:37.006Z,1.02
2022-09-18T11:09:10.671Z,0.98
2022-09-18T11:11:48.192Z,0.40
2022-09-18T11:14:29.047Z,0.40
2022-09-18T11:17:01.165Z,0.65
2022-09-18T11:19:40.163Z,0.93
2022-09-18T11:22:42.393Z,0.50
2022-09-18T11:25:28.956Z,0.80
2022-09-18T11:28:31.814Z,0.80
2022-09-18T11:31:06.372Z,2.45
2022-09-18T11:33:52.894Z,0.90
2022-09-18T11:36:31.910Z,1.12
2022-09-18T11:39:01.930Z,2.87
2022-09-18T11:41:38.055Z,1.65
2022-09-18T11:44:19.362Z,1.02
2022-09-18T11:46:59.442Z,0.60
2022-09-18T11:49:41.855Z,1.62
2022-09-18T11:55:24.273Z,0.47
2022-09-18T11:58:00.274Z,2.08
2022-09-18T12:00:39.012Z,1.45
2022-09-18T12:03:33.317Z,2.67
2022-09-18T12:06:06.404Z,1.52
2022-09-18T12:11:32.742Z,2.47
2022-09-18T12:14:31.790Z,1.92
2022-09-18T12:17:37.322Z,3.75
2022-09-18T12:20:38.036Z,9.90
2022-09-18T12:23:11.239Z,4.10
2022-09-18T12:26:06.659Z,1.45
2022-09-18T12:29:18.457Z,1.85
2022-09-18T12:32:09.257Z,1.12
2022-09-18T12:34:43.043Z,0.60
2022-09-18T12:40:15.164Z,0.75
2022-09-18T12:43:09.600Z,1.10
2022-09-18T12:46:00.991Z,2.75
2022-09-18T12:49:16.300Z,1.10
2022-09-18T12:51:52.294Z,1.45
2022-09-18T12:54:31.343Z,1.95
2022-09-18T12:57:23.708Z,1.55
2022-09-18T13:00:11.974Z,2.02
2022-09-18T13:02:53.658Z,1.45
2022-09-18T13:05:40.951Z,1.32
2022-09-18T13:08:34.018Z,1.32
2022-09-18T13:11:07.033Z,1.00
2022-09-18T13:13:52.103Z,0.80
2022-09-18T13:16:47.252Z,1.57
2022-09-18T13:19:26.596Z,1.37
2022-09-18T13:21:57.402Z,5.20
2022-09-18T13:24:33.353Z,1.87
2022-09-18T13:27:06.307Z,3.70
2022-09-18T13:29:56.273Z,2.77
2022-09-18T13:32:38.064Z,1.55
2022-09-18T13:35:25.532Z,2.60
2022-09-18T13:38:13.726Z,3.90
2022-09-18T13:40:46.106Z,2.22
2022-09-18T13:43:31.394Z,3.42
2022-09-18T13:46:06.073Z,2.58
2022-09-18T13:48:48.203Z,2.25
2022-09-18T13:51:30.639Z,4.10
2022-09-18T13:54:19.044Z,2.67
2022-09-18T13:57:12.199Z,2.25
2022-09-18T14:00:00.050Z,2.85
2022-09-18T14:02:34.912Z,2.72
2022-09-18T14:05:24.797Z,5.95
2022-09-18T14:08:02.685Z,1.90
2022-09-18T14:11:16.972Z,4.30
2022-09-18T14:13:53.801Z,2.72
2022-09-18T14:16:35.775Z,3.90
2022-09-18T14:19:08.881Z,3.22
2022-09-18T14:21:42.181Z,3.42
2022-09-18T14:24:52.252Z,2.10
2022-09-18T14:27:56.410Z,3.77
2022-09-18T14:30:28.621Z,3.20
2022-09-18T14:33:11.171Z,4.87
2022-09-18T14:35:56.389Z,2.25
2022-09-18T14:38:34.369Z,3.08
2022-09-18T14:41:19.867Z,2.47
2022-09-18T14:43:52.157Z,4.85
2022-09-18T14:46:23.261Z,5.90
2022-09-18T14:48:51.499Z,3.87
2022-09-18T14:51:28.383Z,4.15
2022-09-18T14:53:58.914Z,2.47
2022-09-18T14:56:30.838Z,3.65
2022-09-18T14:59:05.656Z,3.62
2022-09-18T15:01:37.108Z,2.90
2022-09-18T15:04:07.294Z,3.17
2022-09-18T15:06:49.173Z,1.52
2022-09-18T15:09:26.949Z,2.95
2022-09-18T15:12:03.140Z,3.15
2022-09-18T15:14:45.510Z,1.82
2022-09-18T15:17:18.904Z,1.02
2022-09-18T15:20:03.538Z,3.47
2022-09-18T15:22:31.479Z,4.10
2022-09-18T15:25:00.844Z,1.47
2022-09-18T15:27:30.849Z,0.95
2022-09-18T15:30:19.185Z,0.95
2022-09-18T15:32:52.186Z,1.17
2022-09-18T15:35:28.229Z,2.10
2022-09-18T15:38:03.053Z,1.32
2022-09-18T15:40:37.609Z,1.15
2022-09-18T15:43:26.664Z,1.05
2022-09-18T15:46:11.090Z,5.62
2022-09-18T15:48:47.537Z,1.72
2022-09-18T15:51:26.710Z,1.85
2022-09-18T15:54:14.209Z,1.12
2022-09-18T15:56:58.161Z,1.12
2022-09-18T16:02:20.857Z,0.75
2022-09-18T16:04:48.580Z,0.90
2022-09-18T16:07:26.455Z,1.70
2022-09-18T16:09:54.799Z,1.92
2022-09-18T16:12:33.047Z,1.20
2022-09-18T16:15:35.443Z,1.77
2022-09-18T16:18:28.780Z,1.45
2022-09-18T16:21:03.822Z,4.47
2022-09-18T16:23:47.413Z,3.17
2022-09-18T16:26:31.432Z,2.25
2022-09-18T16:29:03.395Z,2.42
2022-09-18T16:31:34.434Z,1.90
2022-09-18T16:34:23.818Z,2.90
2022-09-18T16:36:52.238Z,2.67
2022-09-18T16:39:23.544Z,3.40
2022-09-18T16:41:51.893Z,4.10
2022-09-18T16:44:19.635Z,3.90
2022-09-18T16:47:04.090Z,1.80
2022-09-18T16:49:35.999Z,2.87
2022-09-18T16:52:04.462Z,1.65
2022-09-18T16:54:32.555Z,2.42
2022-09-18T16:57:08.418Z,1.27
2022-09-18T16:59:40.121Z,1.80
2022-09-18T17:02:09.399Z,1.42
2022-09-18T17:04:37.183Z,3.27
2022-09-18T17:07:05.943Z,2.27
2022-09-18T17:09:33.446Z,3.40
2022-09-18T17:12:01.252Z,2.17
2022-09-18T17:14:29.125Z,2.27
2022-09-18T17:16:56.917Z,1.82
2022-09-18T17:19:24.650Z,2.17
2022-09-18T17:21:53.037Z,2.60
2022-09-18T17:24:25.379Z,1.80
2022-09-18T17:26:53.859Z,3.15
2022-09-18T17:29:22.138Z,1.47
2022-09-18T17:31:49.606Z,4.10
2022-09-18T17:34:18.459Z,3.75
2022-09-18T17:36:46.220Z,3.42
2022-09-18T17:39:16.030Z,1.55
2022-09-18T17:41:45.289Z,2.40
2022-09-18T17:44:12.824Z,5.22
2022-09-18T17:46:40.578Z,3.25
2022-09-18T17:49:08.429Z,5.97
2022-09-18T17:51:36.620Z,4.72
2022-09-18T17:54:04.935Z,8.75
2022-09-18T17:56:33.713Z,3.62
2022-09-18T17:59:06.363Z,6.53
2022-09-18T18:01:42.407Z,6.92
2022-09-18T18:04:09.812Z,10.15
2022-09-18T18:06:37.722Z,4.20
2022-09-18T18:09:09.247Z,5.25
2022-09-18T18:11:38.122Z,5.55
2022-09-18T18:14:05.569Z,4.37
2022-09-18T18:16:34.674Z,6.95
2022-09-18T18:19:07.541Z,5.00
2022-09-18T18:21:41.960Z,8.08
2022-09-18T18:24:15.805Z,5.03
2022-09-18T18:26:45.255Z,3.42
2022-09-18T18:29:17.340Z,1.70
2022-09-18T18:31:47.380Z,3.22
2022-09-18T18:34:16.645Z,3.65
2022-09-18T18:36:44.017Z,1.65
2022-09-18T18:39:13.670Z,2.22
2022-09-18T18:41:43.565Z,3.75
2022-09-18T18:44:12.683Z,2.77
2022-09-18T18:46:40.912Z,3.10
2022-09-18T18:49:12.706Z,3.30
2022-09-18T18:51:45.277Z,5.92
2022-09-18T18:54:17.930Z,4.40
2022-09-18T18:56:46.613Z,6.28
2022-09-18T18:59:17.653Z,5.60
2022-09-18T19:01:46.689Z,3.92
2022-09-18T19:04:19.804Z,1.85
2022-09-18T19:06:48.938Z,2.22
2022-09-18T19:09:23.866Z,6.67
2022-09-18T19:11:52.519Z,2.33
2022-09-18T19:14:31.020Z,3.08
2022-09-18T19:16:59.513Z,6.15
2022-09-18T19:19:28.527Z,8.98
2022-09-18T19:21:58.714Z,6.58
2022-09-18T19:24:27.614Z,5.05
2022-09-18T19:26:55.086Z,4.70
2022-09-18T19:29:22.858Z,6.35
2022-09-18T19:31:51.349Z,5.05
2022-09-18T19:34:21.729Z,5.35
2022-09-18T19:36:51.357Z,5.40
2022-09-18T19:39:21.973Z,2.72
2022-09-18T19:42:04.265Z,1.67
2022-09-18T19:44:37.165Z,2.30
2022-09-18T19:47:13.492Z,2.15
2022-09-18T19:49:41.626Z,5.35
2022-09-18T19:52:22.452Z,3.77
2022-09-18T19:54:52.223Z,3.27
2022-09-18T19:57:22.611Z,3.70
2022-09-18T19:59:55.776Z,2.50
2022-09-18T20:04:51.802Z,2.45
2022-09-18T20:07:19.226Z,1.85
2022-09-18T20:09:46.921Z,2.35
2022-09-18T20:12:14.605Z,1.47
2022-09-18T20:14:42.458Z,2.72
2022-09-18T20:17:10.464Z,3.20
2022-09-18T20:19:37.929Z,2.27
2022-09-18T20:22:06.395Z,3.05
2022-09-18T20:24:33.879Z,1.47
2022-09-18T20:27:01.750Z,2.00
2022-09-18T20:29:30.005Z,0.90
2022-09-18T20:31:57.828Z,2.85
2022-09-18T20:34:25.983Z,1.27
2022-09-18T20:36:54.339Z,1.10
2022-09-18T20:39:22.186Z,1.65
2022-09-18T20:41:50.720Z,1.65
2022-09-18T20:44:19.089Z,2.98
2022-09-18T20:46:46.711Z,3.60
2022-09-18T20:49:16.234Z,1.72
2022-09-18T20:51:43.859Z,3.40
2022-09-18T20:54:14.138Z,2.98
2022-09-18T20:56:42.728Z,1.92
2022-09-18T20:59:16.192Z,4.62
2022-09-18T21:01:46.252Z,6.12
2022-09-18T21:04:19.653Z,9.03
2022-09-18T21:06:53.261Z,4.12
2022-09-18T21:11:48.758Z,6.30
2022-09-18T21:14:17.448Z,3.83
2022-09-18T21:16:45.117Z,3.67
2022-09-18T21:19:18.839Z,5.70
2022-09-18T21:21:47.956Z,4.35
2022-09-18T21:24:16.881Z,31.27
2022-09-18T21:26:47.725Z,26.30
2022-09-18T21:29:22.242Z,4.65
2022-09-18T21:31:53.937Z,2.95
2022-09-18T21:34:26.329Z,5.00
2022-09-18T21:36:58.288Z,5.35
2022-09-18T21:39:30.036Z,4.55
2022-09-18T21:42:00.021Z,2.42
2022-09-18T21:44:31.188Z,2.87
2022-09-18T21:47:02.772Z,4.47
2022-09-18T21:49:31.972Z,5.58
2022-09-18T21:52:03.738Z,4.37
2022-09-18T21:54:31.498Z,4.58
2022-09-18T21:56:59.364Z,4.72
2022-09-18T21:59:31.028Z,5.37
2022-09-18T22:02:00.409Z,3.45
2022-09-18T22:04:32.375Z,2.08
2022-09-18T22:07:01.500Z,4.08
2022-09-18T22:09:34.342Z,2.62
2022-09-18T22:12:02.227Z,6.03
2022-09-18T22:14:32.904Z,4.72
2022-09-18T22:17:06.682Z,3.10
2022-09-18T22:19:38.015Z,3.70
2022-09-18T22:22:04.159Z,3.55
2022-09-18T22:24:31.790Z,5.12
2022-09-18T22:27:04.468Z,2.62
2022-09-18T22:29:36.453Z,4.85
2022-09-18T22:32:04.821Z,1.95
2022-09-18T22:34:34.593Z,3.72
2022-09-18T22:37:02.731Z,4.28
2022-09-18T22:39:30.567Z,5.17
2022-09-18T22:41:58.433Z,4.55
2022-09-18T22:44:26.070Z,2.83
2022-09-18T22:46:53.744Z,6.75
2022-09-18T22:49:23.087Z,3.60
2022-09-18T22:51:51.465Z,4.60
2022-09-18T22:54:25.889Z,2.15
2022-09-18T22:56:55.036Z,1.92
2022-09-18T22:59:26.296Z,3.10
2022-09-18T23:02:03.963Z,6.20
2022-09-18T23:04:33.937Z,2.83
2022-09-18T23:07:03.277Z,4.62
2022-09-18T23:09:31.076Z,1.98
2022-09-18T23:11:59.177Z,1.50
2022-09-18T23:14:30.516Z,2.02
2022-09-18T23:16:59.990Z,3.47
2022-09-18T23:19:31.777Z,1.92
2022-09-18T23:22:00.120Z,3.12
2022-09-18T23:24:28.155Z,3.00
2022-09-18T23:26:57.858Z,2.22
2022-09-18T23:29:27.270Z,2.05
2022-09-18T23:31:57.070Z,4.37
2022-09-18T23:34:32.785Z,2.58
2022-09-18T23:37:00.951Z,4.75
2022-09-18T23:39:32.993Z,4.70
2022-09-18T23:42:02.944Z,3.77
2022-09-18T23:44:32.172Z,2.77
2022-09-18T23:47:00.833Z,4.00
2022-09-18T23:49:29.881Z,5.70
2022-09-18T23:51:59.161Z,4.97
2022-09-18T23:54:30.326Z,3.55
2022-09-18T23:56:58.750Z,3.85
2022-09-18T23:59:27.136Z,4.45
